Asukamaru — JG5536 — position and weather

sailwx.info

Track history (hours):
 
Tides and Currents Weather Stations Pressure Air Temp Water Temp Dewpoint Dewpoint Depression Visibility Wind Speed Wind Dir Waves Ship Positions

Asukamaru

Last reported at 2015-May-23 08:34 UTC. Time now 2015-May-23 08:52 UTC.
Position N 35°36' E 139°46'.

Length 31 m; draft 3 m.

Type: Tug. MMSI: 431001145.

Date/timePositionNaut miles runAvg speedWind from/ knotsBaromVisibWave heightAir tempDewpointWater temp
2015-May-23 08:34N 35°36' E 139°46'2 2.0
2015-May-23 07:33N 35°38' E 139°45'0 0.0
2015-May-23 06:34N 35°38' E 139°45'0 0.0
2015-May-23 05:34N 35°38' E 139°45'0 0.0
2015-May-23 04:34N 35°38' E 139°45'0 0.0
2015-May-23 03:33N 35°38' E 139°45'0 0.0
2015-May-23 02:34N 35°38' E 139°45'0 0.0
2015-May-23 01:33N 35°38' E 139°45'0 0.0
2015-May-23 00:34N 35°38' E 139°45'0 0.0
2015-May-22 23:34N 35°38' E 139°45'3 2.5
2015-May-22 22:33N 35°36' E 139°46'2 2.4
2015-May-22 21:33N 35°34' E 139°49'3 2.9
2015-May-22 20:34N 35°36' E 139°46'2 2.0
2015-May-22 19:33N 35°38' E 139°45'0 0.0
2015-May-22 18:34N 35°38' E 139°45'0 0.0
2015-May-22 17:33N 35°38' E 139°45'0 0.0
2015-May-22 16:33N 35°38' E 139°45'0 0.0
2015-May-22 15:33N 35°38' E 139°45'0 0.0
2015-May-22 14:32N 35°38' E 139°45'0 0.0
2015-May-22 13:33N 35°38' E 139°45'0 0.0
2015-May-22 12:34N 35°38' E 139°45'0 0.0
2015-May-22 11:33N 35°38' E 139°45'0 0.0
2015-May-22 10:32N 35°38' E 139°45'0 0.0
2015-May-22 09:33N 35°38' E 139°45'0 0.0
2015-May-22 08:34N 35°38' E 139°45'0 0.0
2015-May-22 07:34N 35°38' E 139°45'0 0.0
2015-May-22 06:34N 35°38' E 139°45'1 1.2
2015-May-22 05:34N 35°37' E 139°46'0 0.1
2015-May-22 04:33N 35°37' E 139°46'1 1.1
2015-May-22 03:32N 35°38' E 139°45'0 0.0
2015-May-22 02:33N 35°38' E 139°45'0 0.0
2015-May-22 01:32N 35°38' E 139°45'0 0.0
2015-May-22 00:33N 35°38' E 139°45'0 0.0
2015-May-21 23:33N 35°38' E 139°45'0 0.0
2015-May-21 22:33N 35°38' E 139°45'0 0.0
2015-May-21 21:33N 35°38' E 139°45'0 0.0
2015-May-21 20:33N 35°38' E 139°45'0 0.0
2015-May-21 19:33N 35°38' E 139°45'0 0.0
2015-May-21 18:33N 35°38' E 139°45'0 0.0
2015-May-21 17:33N 35°38' E 139°45'0 0.0
2015-May-21 16:34N 35°38' E 139°45'0 0.0
2015-May-21 15:33N 35°38' E 139°45'0 0.0
2015-May-21 14:33N 35°38' E 139°45'0 0.0
2015-May-21 13:34N 35°38' E 139°45'0 0.0
2015-May-21 12:33N 35°38' E 139°45'0 0.0
2015-May-21 11:33N 35°38' E 139°45'0 0.0
2015-May-21 10:34N 35°38' E 139°45'0 0.0
2015-May-21 09:33N 35°38' E 139°45'0 0.0
2015-May-21 08:33N 35°38' E 139°45'0 0.0
2015-May-21 07:34N 35°38' E 139°45'0 0.0
2015-May-21 06:33N 35°38' E 139°45'0 0.0
2015-May-21 05:34N 35°38' E 139°45'0 0.0
2015-May-21 04:32N 35°38' E 139°45'0 0.0
2015-May-21 03:33N 35°38' E 139°45'0 0.0
2015-May-21 02:33N 35°38' E 139°45'0 0.0
2015-May-21 01:33N 35°38' E 139°45'1 1.2
2015-May-21 00:33N 35°39' E 139°47'1 1.2
2015-May-20 23:34N 35°38' E 139°45'0 0.0
2015-May-20 22:33N 35°38' E 139°45'0 0.0
2015-May-20 21:33N 35°38' E 139°45'0 0.0
2015-May-20 20:33N 35°38' E 139°45'0 0.0
2015-May-20 19:34N 35°38' E 139°45'0 0.0
2015-May-20 18:33N 35°38' E 139°45'0 0.0
2015-May-20 17:33N 35°38' E 139°45'0 0.0
2015-May-20 16:34N 35°38' E 139°45'0 0.0
2015-May-20 15:33N 35°38' E 139°45'0 0.0
2015-May-20 14:33N 35°38' E 139°46'0 0.0
2015-May-20 13:34N 35°38' E 139°45'0 0.0
2015-May-20 12:33N 35°38' E 139°45'0 0.0
2015-May-20 11:33N 35°38' E 139°45'0 0.0
2015-May-20 10:34N 35°38' E 139°45'0 0.0
2015-May-20 09:34N 35°38' E 139°45'0 0.0
2015-May-20 08:33N 35°38' E 139°45'0 0.0
2015-May-20 07:33N 35°38' E 139°45'1 1.1
2015-May-20 06:33N 35°39' E 139°47'2 2.0
2015-May-20 05:33N 35°37' E 139°46'2 2.0
2015-May-20 04:33N 35°39' E 139°47'1 1.1
2015-May-20 03:33N 35°38' E 139°45'0 0.0
2015-May-20 02:33N 35°38' E 139°45'0 0.0
2015-May-20 01:33N 35°38' E 139°45'0 0.3
2015-May-20 00:33N 35°38' E 139°46'0 0.3
2015-May-19 23:34N 35°38' E 139°46'0 0.1
2015-May-19 22:33N 35°38' E 139°45'0 0.0
2015-May-19 21:33N 35°38' E 139°45'0 0.0
2015-May-19 20:33N 35°38' E 139°45'0 0.0
2015-May-19 19:33N 35°38' E 139°45'0 0.0
2015-May-19 18:33N 35°38' E 139°45'0 0.0
2015-May-19 17:34N 35°38' E 139°45'0 0.0
2015-May-19 16:34N 35°38' E 139°45'0 0.0
2015-May-19 15:33N 35°38' E 139°45'0 0.0
2015-May-19 14:34N 35°38' E 139°45'0 0.0
2015-May-19 13:34N 35°38' E 139°45'0 0.0
2015-May-19 12:33N 35°38' E 139°45'0 0.0
2015-May-19 11:33N 35°38' E 139°45'0 0.0
2015-May-19 10:34N 35°38' E 139°45'0 0.0
2015-May-19 09:33N 35°38' E 139°45'0 0.0
2015-May-19 08:33N 35°38' E 139°45'0 0.0
2015-May-19 07:33N 35°38' E 139°45'0 0.0
2015-May-19 06:33N 35°38' E 139°45'0 0.0
2015-May-19 05:33N 35°38' E 139°45'0 0.0
2015-May-19 04:32N 35°38' E 139°45'0 0.0
2015-May-19 03:34N 35°38' E 139°45'0 0.0
2015-May-19 02:33N 35°38' E 139°45'0 0.0
2015-May-19 01:33N 35°38' E 139°45'0 0.0
2015-May-19 00:33N 35°38' E 139°45'0 0.0
2015-May-18 23:34N 35°38' E 139°45'0 0.0
2015-May-18 22:33N 35°38' E 139°45'0 0.0
2015-May-18 21:34N 35°38' E 139°45'0 0.0
2015-May-18 20:34N 35°38' E 139°45'0 0.0
2015-May-18 19:34N 35°38' E 139°45'0 0.0
2015-May-18 18:33N 35°38' E 139°45'0 0.0
2015-May-18 17:33N 35°38' E 139°45'0 0.0
2015-May-18 16:33N 35°38' E 139°45'0 0.0
2015-May-18 15:34N 35°38' E 139°46'0 0.0
2015-May-18 14:33N 35°38' E 139°45'0 0.0
2015-May-18 13:34N 35°38' E 139°45'0 0.0
2015-May-18 12:34N 35°38' E 139°45'0 0.0
2015-May-18 11:33N 35°38' E 139°45'0 0.0
2015-May-18 10:33N 35°38' E 139°45'0 0.0
2015-May-18 09:34N 35°38' E 139°45'0 0.0
2015-May-18 08:34N 35°38' E 139°45'0 0.0
2015-May-18 07:33N 35°38' E 139°45'0 0.0
2015-May-18 06:33N 35°38' E 139°45'0 0.0
2015-May-18 05:34N 35°38' E 139°45'0 0.0
2015-May-18 04:33N 35°38' E 139°45'0 0.0
2015-May-18 03:33N 35°38' E 139°45'0 0.0
2015-May-18 02:30N 35°38' E 139°45'2 2.2
2015-May-18 01:33N 35°36' E 139°46'1 0.6
2015-May-18 00:34N 35°36' E 139°47'1 0.8
2015-May-17 23:33N 35°36' E 139°47'0 0.3
2015-May-17 22:33N 35°36' E 139°47'2 2.3
2015-May-17 21:33N 35°38' E 139°45'0 0.0
2015-May-17 20:33N 35°38' E 139°45'0 0.0
2015-May-17 19:34N 35°38' E 139°45'0 0.0
2015-May-17 18:34N 35°38' E 139°45'0 0.0
2015-May-17 17:33N 35°38' E 139°45'0 0.0
2015-May-17 16:34N 35°38' E 139°45'0 0.0
2015-May-17 15:33N 35°38' E 139°45'0 0.0
2015-May-17 14:34N 35°38' E 139°45'0 0.0
2015-May-17 13:33N 35°38' E 139°45'0 0.0
2015-May-17 12:33N 35°38' E 139°45'0 0.0
2015-May-17 11:34N 35°38' E 139°45'0 0.0
2015-May-17 10:33N 35°38' E 139°45'2 1.9
2015-May-17 09:34N 35°37' E 139°47'3 3.0
2015-May-17 08:33N 35°34' E 139°49'5 4.9
2015-May-17 07:34N 35°38' E 139°45'0 0.0
2015-May-17 06:33N 35°38' E 139°45'0 0.0
2015-May-17 05:33N 35°38' E 139°45'0 0.0
2015-May-17 04:33N 35°38' E 139°45'0 0.0
2015-May-17 03:33N 35°38' E 139°45'0 0.0
2015-May-17 02:34N 35°38' E 139°45'0 0.0
2015-May-17 01:33N 35°38' E 139°45'0 0.0
2015-May-17 00:33N 35°38' E 139°45'0 0.0
2015-May-16 23:34N 35°38' E 139°45'0 0.0
2015-May-16 22:34N 35°38' E 139°45'0 0.0
2015-May-16 21:34N 35°38' E 139°45'0 0.0
2015-May-16 20:33N 35°38' E 139°45'0 0.0
2015-May-16 19:34N 35°38' E 139°45'0 0.0
2015-May-16 18:33N 35°38' E 139°45'0 0.0
2015-May-16 17:33N 35°38' E 139°45'0 0.0
2015-May-16 16:34N 35°38' E 139°45'0 0.0
2015-May-16 15:33N 35°38' E 139°45'0 0.0
2015-May-16 14:33N 35°38' E 139°45'0 0.0
2015-May-16 13:34N 35°38' E 139°45'0 0.0
2015-May-16 12:34N 35°38' E 139°45'0 0.0
2015-May-16 11:33N 35°38' E 139°45'0 0.0
2015-May-16 10:34N 35°38' E 139°45'2 2.0
2015-May-16 09:33N 35°36' E 139°46'1 0.9
2015-May-16 08:33N 35°35' E 139°47'0 0.2
2015-May-16 07:34N 35°36' E 139°47'1 0.7
2015-May-16 06:33N 35°36' E 139°46'2 2.1
2015-May-16 05:33N 35°38' E 139°45'0 0.0
2015-May-16 04:34N 35°38' E 139°45'0 0.0
2015-May-16 03:34N 35°38' E 139°45'0 0.0
2015-May-16 02:33N 35°38' E 139°45'0 0.0
2015-May-16 01:34N 35°38' E 139°45'0 0.0
2015-May-16 00:34N 35°38' E 139°45'0 0.0
2015-May-15 23:33N 35°38' E 139°45'2 1.6
2015-May-15 22:33N 35°37' E 139°46'6 5.6
2015-May-15 21:33N 35°34' E 139°52'7 6.7
2015-May-15 20:33N 35°38' E 139°45'0 0.0
2015-May-15 19:33N 35°38' E 139°45'0 0.0
2015-May-15 18:34N 35°38' E 139°45'0 0.0
2015-May-15 17:33N 35°38' E 139°45'0 0.0
2015-May-15 16:33N 35°38' E 139°45'0 0.0
2015-May-15 15:34N 35°38' E 139°45'0 0.0
2015-May-15 14:33N 35°38' E 139°45'0 0.0
2015-May-15 13:33N 35°38' E 139°45'0 0.0
2015-May-15 12:33N 35°38' E 139°45'0 0.0
2015-May-15 11:33N 35°38' E 139°45'0 0.0
2015-May-15 10:33N 35°38' E 139°45'1 1.0
2015-May-15 09:34N 35°37' E 139°46'3 3.1
2015-May-15 08:33N 35°35' E 139°48'3 2.8
2015-May-15 07:34N 35°37' E 139°50'3 2.6
2015-May-15 06:33N 35°36' E 139°47'2 2.0
2015-May-15 05:33N 35°38' E 139°45'0 0.0
2015-May-15 04:33N 35°38' E 139°45'0 0.0
2015-May-15 03:33N 35°38' E 139°45'0 0.0
2015-May-15 02:33N 35°38' E 139°45'0 0.0
2015-May-15 01:34N 35°38' E 139°45'0 0.0
2015-May-15 00:33N 35°38' E 139°45'0 0.0
2015-May-14 23:34N 35°38' E 139°45'2 1.8
2015-May-14 22:34N 35°37' E 139°46'2 1.9
2015-May-14 21:34N 35°35' E 139°48'4 3.6
2015-May-14 20:34N 35°38' E 139°45'0 0.0
2015-May-14 19:33N 35°38' E 139°45'0 0.0
2015-May-14 18:33N 35°38' E 139°45'0 0.0
2015-May-14 17:33N 35°38' E 139°45'0 0.0
2015-May-14 16:33N 35°38' E 139°45'0 0.0
2015-May-14 15:33N 35°38' E 139°45'0 0.0
2015-May-14 14:33N 35°38' E 139°45'0 0.0
2015-May-14 13:33N 35°38' E 139°45'0 0.0
2015-May-14 12:33N 35°38' E 139°45'0 0.0
2015-May-14 11:34N 35°38' E 139°45'0 0.0
2015-May-14 10:34N 35°38' E 139°45'0 0.0
2015-May-14 09:34N 35°38' E 139°45'0 0.0
2015-May-14 08:33N 35°38' E 139°45'3 2.8
2015-May-14 07:33N 35°36' E 139°48'1 1.1
2015-May-14 06:33N 35°35' E 139°48'4 3.8
2015-May-14 05:33N 35°38' E 139°45'0 0.0
2015-May-14 04:32N 35°38' E 139°45'0 0.0
2015-May-14 03:33N 35°38' E 139°45'2 1.8
2015-May-14 02:33N 35°37' E 139°47'0 0.4
2015-May-14 01:33N 35°36' E 139°46'2 1.9
2015-May-14 00:33N 35°38' E 139°45'0 0.0
2015-May-13 23:33N 35°38' E 139°45'0 0.0
2015-May-13 22:34N 35°38' E 139°45'0 0.0
2015-May-13 21:34N 35°38' E 139°45'0 0.0
2015-May-13 20:33N 35°38' E 139°45'0 0.0
2015-May-13 19:33N 35°38' E 139°45'0 0.0
2015-May-13 18:33N 35°38' E 139°45'0 0.0
2015-May-13 17:33N 35°38' E 139°45'0 0.0
2015-May-13 16:33N 35°38' E 139°45'0 0.0
2015-May-13 15:33N 35°38' E 139°45'0 0.2
2015-May-13 14:33N 35°38' E 139°46'3 3.4
2015-May-13 13:33N 35°35' E 139°48'1 1.0
2015-May-13 12:33N 35°36' E 139°48'0 0.0
2015-May-13 11:33N 35°36' E 139°48'1 0.6
2015-May-13 10:33N 35°36' E 139°47'3 2.7
2015-May-13 09:34N 35°38' E 139°45'  
Track history (hours):
 
Tides and Currents Weather Stations Pressure Air Temp Water Temp Dewpoint Dewpoint Depression Visibility Wind Speed Wind Dir Waves Ship Positions

Asukamaru

Last reported at 2015-May-23 08:34 UTC. Time now 2015-May-23 08:52 UTC.
Position N 35°36' E 139°46'.

Length 31 m; draft 3 m.

Type: Tug. MMSI: 431001145.

Date/timePositionNaut miles runAvg speedWind from/ knotsBaromVisibWave heightAir tempDewpointWater temp
2015-May-23 08:34N 35°36' E 139°46'2 2.0
2015-May-23 07:33N 35°38' E 139°45'0 0.0
2015-May-23 06:34N 35°38' E 139°45'0 0.0
2015-May-23 05:34N 35°38' E 139°45'0 0.0
2015-May-23 04:34N 35°38' E 139°45'0 0.0
2015-May-23 03:33N 35°38' E 139°45'0 0.0
2015-May-23 02:34N 35°38' E 139°45'0 0.0
2015-May-23 01:33N 35°38' E 139°45'0 0.0
2015-May-23 00:34N 35°38' E 139°45'0 0.0
2015-May-22 23:34N 35°38' E 139°45'3 2.5
2015-May-22 22:33N 35°36' E 139°46'2 2.4
2015-May-22 21:33N 35°34' E 139°49'3 2.9
2015-May-22 20:34N 35°36' E 139°46'2 2.0
2015-May-22 19:33N 35°38' E 139°45'0 0.0
2015-May-22 18:34N 35°38' E 139°45'0 0.0
2015-May-22 17:33N 35°38' E 139°45'0 0.0
2015-May-22 16:33N 35°38' E 139°45'0 0.0
2015-May-22 15:33N 35°38' E 139°45'0 0.0
2015-May-22 14:32N 35°38' E 139°45'0 0.0
2015-May-22 13:33N 35°38' E 139°45'0 0.0
2015-May-22 12:34N 35°38' E 139°45'0 0.0
2015-May-22 11:33N 35°38' E 139°45'0 0.0
2015-May-22 10:32N 35°38' E 139°45'0 0.0
2015-May-22 09:33N 35°38' E 139°45'0 0.0
2015-May-22 08:34N 35°38' E 139°45'0 0.0
2015-May-22 07:34N 35°38' E 139°45'0 0.0
2015-May-22 06:34N 35°38' E 139°45'1 1.2
2015-May-22 05:34N 35°37' E 139°46'0 0.1
2015-May-22 04:33N 35°37' E 139°46'1 1.1
2015-May-22 03:32N 35°38' E 139°45'0 0.0
2015-May-22 02:33N 35°38' E 139°45'0 0.0
2015-May-22 01:32N 35°38' E 139°45'0 0.0
2015-May-22 00:33N 35°38' E 139°45'0 0.0
2015-May-21 23:33N 35°38' E 139°45'0 0.0
2015-May-21 22:33N 35°38' E 139°45'0 0.0
2015-May-21 21:33N 35°38' E 139°45'0 0.0
2015-May-21 20:33N 35°38' E 139°45'0 0.0
2015-May-21 19:33N 35°38' E 139°45'0 0.0
2015-May-21 18:33N 35°38' E 139°45'0 0.0
2015-May-21 17:33N 35°38' E 139°45'0 0.0
2015-May-21 16:34N 35°38' E 139°45'0 0.0
2015-May-21 15:33N 35°38' E 139°45'0 0.0
2015-May-21 14:33N 35°38' E 139°45'0 0.0
2015-May-21 13:34N 35°38' E 139°45'0 0.0
2015-May-21 12:33N 35°38' E 139°45'0 0.0
2015-May-21 11:33N 35°38' E 139°45'0 0.0
2015-May-21 10:34N 35°38' E 139°45'0 0.0
2015-May-21 09:33N 35°38' E 139°45'0 0.0
2015-May-21 08:33N 35°38' E 139°45'0 0.0
2015-May-21 07:34N 35°38' E 139°45'0 0.0
2015-May-21 06:33N 35°38' E 139°45'0 0.0
2015-May-21 05:34N 35°38' E 139°45'0 0.0
2015-May-21 04:32N 35°38' E 139°45'0 0.0
2015-May-21 03:33N 35°38' E 139°45'0 0.0
2015-May-21 02:33N 35°38' E 139°45'0 0.0
2015-May-21 01:33N 35°38' E 139°45'1 1.2
2015-May-21 00:33N 35°39' E 139°47'1 1.2
2015-May-20 23:34N 35°38' E 139°45'0 0.0
2015-May-20 22:33N 35°38' E 139°45'0 0.0
2015-May-20 21:33N 35°38' E 139°45'0 0.0
2015-May-20 20:33N 35°38' E 139°45'0 0.0
2015-May-20 19:34N 35°38' E 139°45'0 0.0
2015-May-20 18:33N 35°38' E 139°45'0 0.0
2015-May-20 17:33N 35°38' E 139°45'0 0.0
2015-May-20 16:34N 35°38' E 139°45'0 0.0
2015-May-20 15:33N 35°38' E 139°45'0 0.0
2015-May-20 14:33N 35°38' E 139°46'0 0.0
2015-May-20 13:34N 35°38' E 139°45'0 0.0
2015-May-20 12:33N 35°38' E 139°45'0 0.0
2015-May-20 11:33N 35°38' E 139°45'0 0.0
2015-May-20 10:34N 35°38' E 139°45'0 0.0
2015-May-20 09:34N 35°38' E 139°45'0 0.0
2015-May-20 08:33N 35°38' E 139°45'0 0.0
2015-May-20 07:33N 35°38' E 139°45'1 1.1
2015-May-20 06:33N 35°39' E 139°47'2 2.0
2015-May-20 05:33N 35°37' E 139°46'2 2.0
2015-May-20 04:33N 35°39' E 139°47'1 1.1
2015-May-20 03:33N 35°38' E 139°45'0 0.0
2015-May-20 02:33N 35°38' E 139°45'0 0.0
2015-May-20 01:33N 35°38' E 139°45'0 0.3
2015-May-20 00:33N 35°38' E 139°46'0 0.3
2015-May-19 23:34N 35°38' E 139°46'0 0.1
2015-May-19 22:33N 35°38' E 139°45'0 0.0
2015-May-19 21:33N 35°38' E 139°45'0 0.0
2015-May-19 20:33N 35°38' E 139°45'0 0.0
2015-May-19 19:33N 35°38' E 139°45'0 0.0
2015-May-19 18:33N 35°38' E 139°45'0 0.0
2015-May-19 17:34N 35°38' E 139°45'0 0.0
2015-May-19 16:34N 35°38' E 139°45'0 0.0
2015-May-19 15:33N 35°38' E 139°45'0 0.0
2015-May-19 14:34N 35°38' E 139°45'0 0.0
2015-May-19 13:34N 35°38' E 139°45'0 0.0
2015-May-19 12:33N 35°38' E 139°45'0 0.0
2015-May-19 11:33N 35°38' E 139°45'0 0.0
2015-May-19 10:34N 35°38' E 139°45'0 0.0
2015-May-19 09:33N 35°38' E 139°45'0 0.0
2015-May-19 08:33N 35°38' E 139°45'0 0.0
2015-May-19 07:33N 35°38' E 139°45'0 0.0
2015-May-19 06:33N 35°38' E 139°45'0 0.0
2015-May-19 05:33N 35°38' E 139°45'0 0.0
2015-May-19 04:32N 35°38' E 139°45'0 0.0
2015-May-19 03:34N 35°38' E 139°45'0 0.0
2015-May-19 02:33N 35°38' E 139°45'0 0.0
2015-May-19 01:33N 35°38' E 139°45'0 0.0
2015-May-19 00:33N 35°38' E 139°45'0 0.0
2015-May-18 23:34N 35°38' E 139°45'0 0.0
2015-May-18 22:33N 35°38' E 139°45'0 0.0
2015-May-18 21:34N 35°38' E 139°45'0 0.0
2015-May-18 20:34N 35°38' E 139°45'0 0.0
2015-May-18 19:34N 35°38' E 139°45'0 0.0
2015-May-18 18:33N 35°38' E 139°45'0 0.0
2015-May-18 17:33N 35°38' E 139°45'0 0.0
2015-May-18 16:33N 35°38' E 139°45'0 0.0
2015-May-18 15:34N 35°38' E 139°46'0 0.0
2015-May-18 14:33N 35°38' E 139°45'0 0.0
2015-May-18 13:34N 35°38' E 139°45'0 0.0
2015-May-18 12:34N 35°38' E 139°45'0 0.0
2015-May-18 11:33N 35°38' E 139°45'0 0.0
2015-May-18 10:33N 35°38' E 139°45'0 0.0
2015-May-18 09:34N 35°38' E 139°45'0 0.0
2015-May-18 08:34N 35°38' E 139°45'0 0.0
2015-May-18 07:33N 35°38' E 139°45'0 0.0
2015-May-18 06:33N 35°38' E 139°45'0 0.0
2015-May-18 05:34N 35°38' E 139°45'0 0.0
2015-May-18 04:33N 35°38' E 139°45'0 0.0
2015-May-18 03:33N 35°38' E 139°45'0 0.0
2015-May-18 02:30N 35°38' E 139°45'2 2.2
2015-May-18 01:33N 35°36' E 139°46'1 0.6
2015-May-18 00:34N 35°36' E 139°47'1 0.8
2015-May-17 23:33N 35°36' E 139°47'0 0.3
2015-May-17 22:33N 35°36' E 139°47'2 2.3
2015-May-17 21:33N 35°38' E 139°45'0 0.0
2015-May-17 20:33N 35°38' E 139°45'0 0.0
2015-May-17 19:34N 35°38' E 139°45'0 0.0
2015-May-17 18:34N 35°38' E 139°45'0 0.0
2015-May-17 17:33N 35°38' E 139°45'0 0.0
2015-May-17 16:34N 35°38' E 139°45'0 0.0
2015-May-17 15:33N 35°38' E 139°45'0 0.0
2015-May-17 14:34N 35°38' E 139°45'0 0.0
2015-May-17 13:33N 35°38' E 139°45'0 0.0
2015-May-17 12:33N 35°38' E 139°45'0 0.0
2015-May-17 11:34N 35°38' E 139°45'0 0.0
2015-May-17 10:33N 35°38' E 139°45'2 1.9
2015-May-17 09:34N 35°37' E 139°47'3 3.0
2015-May-17 08:33N 35°34' E 139°49'5 4.9
2015-May-17 07:34N 35°38' E 139°45'0 0.0
2015-May-17 06:33N 35°38' E 139°45'0 0.0
2015-May-17 05:33N 35°38' E 139°45'0 0.0
2015-May-17 04:33N 35°38' E 139°45'0 0.0
2015-May-17 03:33N 35°38' E 139°45'0 0.0
2015-May-17 02:34N 35°38' E 139°45'0 0.0
2015-May-17 01:33N 35°38' E 139°45'0 0.0
2015-May-17 00:33N 35°38' E 139°45'0 0.0
2015-May-16 23:34N 35°38' E 139°45'0 0.0
2015-May-16 22:34N 35°38' E 139°45'0 0.0
2015-May-16 21:34N 35°38' E 139°45'0 0.0
2015-May-16 20:33N 35°38' E 139°45'0 0.0
2015-May-16 19:34N 35°38' E 139°45'0 0.0
2015-May-16 18:33N 35°38' E 139°45'0 0.0
2015-May-16 17:33N 35°38' E 139°45'0 0.0
2015-May-16 16:34N 35°38' E 139°45'0 0.0
2015-May-16 15:33N 35°38' E 139°45'0 0.0
2015-May-16 14:33N 35°38' E 139°45'0 0.0
2015-May-16 13:34N 35°38' E 139°45'0 0.0
2015-May-16 12:34N 35°38' E 139°45'0 0.0
2015-May-16 11:33N 35°38' E 139°45'0 0.0
2015-May-16 10:34N 35°38' E 139°45'2 2.0
2015-May-16 09:33N 35°36' E 139°46'1 0.9
2015-May-16 08:33N 35°35' E 139°47'0 0.2
2015-May-16 07:34N 35°36' E 139°47'1 0.7
2015-May-16 06:33N 35°36' E 139°46'2 2.1
2015-May-16 05:33N 35°38' E 139°45'0 0.0
2015-May-16 04:34N 35°38' E 139°45'0 0.0
2015-May-16 03:34N 35°38' E 139°45'0 0.0
2015-May-16 02:33N 35°38' E 139°45'0 0.0
2015-May-16 01:34N 35°38' E 139°45'0 0.0
2015-May-16 00:34N 35°38' E 139°45'0 0.0
2015-May-15 23:33N 35°38' E 139°45'2 1.6
2015-May-15 22:33N 35°37' E 139°46'6 5.6
2015-May-15 21:33N 35°34' E 139°52'7 6.7
2015-May-15 20:33N 35°38' E 139°45'0 0.0
2015-May-15 19:33N 35°38' E 139°45'0 0.0
2015-May-15 18:34N 35°38' E 139°45'0 0.0
2015-May-15 17:33N 35°38' E 139°45'0 0.0
2015-May-15 16:33N 35°38' E 139°45'0 0.0
2015-May-15 15:34N 35°38' E 139°45'0 0.0
2015-May-15 14:33N 35°38' E 139°45'0 0.0
2015-May-15 13:33N 35°38' E 139°45'0 0.0
2015-May-15 12:33N 35°38' E 139°45'0 0.0
2015-May-15 11:33N 35°38' E 139°45'0 0.0
2015-May-15 10:33N 35°38' E 139°45'1 1.0
2015-May-15 09:34N 35°37' E 139°46'3 3.1
2015-May-15 08:33N 35°35' E 139°48'3 2.8
2015-May-15 07:34N 35°37' E 139°50'3 2.6
2015-May-15 06:33N 35°36' E 139°47'2 2.0
2015-May-15 05:33N 35°38' E 139°45'0 0.0
2015-May-15 04:33N 35°38' E 139°45'0 0.0
2015-May-15 03:33N 35°38' E 139°45'0 0.0
2015-May-15 02:33N 35°38' E 139°45'0 0.0
2015-May-15 01:34N 35°38' E 139°45'0 0.0
2015-May-15 00:33N 35°38' E 139°45'0 0.0
2015-May-14 23:34N 35°38' E 139°45'2 1.8
2015-May-14 22:34N 35°37' E 139°46'2 1.9
2015-May-14 21:34N 35°35' E 139°48'4 3.6
2015-May-14 20:34N 35°38' E 139°45'0 0.0
2015-May-14 19:33N 35°38' E 139°45'0 0.0
2015-May-14 18:33N 35°38' E 139°45'0 0.0
2015-May-14 17:33N 35°38' E 139°45'0 0.0
2015-May-14 16:33N 35°38' E 139°45'0 0.0
2015-May-14 15:33N 35°38' E 139°45'0 0.0
2015-May-14 14:33N 35°38' E 139°45'0 0.0
2015-May-14 13:33N 35°38' E 139°45'0 0.0
2015-May-14 12:33N 35°38' E 139°45'0 0.0
2015-May-14 11:34N 35°38' E 139°45'0 0.0
2015-May-14 10:34N 35°38' E 139°45'0 0.0
2015-May-14 09:34N 35°38' E 139°45'0 0.0
2015-May-14 08:33N 35°38' E 139°45'3 2.8
2015-May-14 07:33N 35°36' E 139°48'1 1.1
2015-May-14 06:33N 35°35' E 139°48'4 3.8
2015-May-14 05:33N 35°38' E 139°45'0 0.0
2015-May-14 04:32N 35°38' E 139°45'0 0.0
2015-May-14 03:33N 35°38' E 139°45'2 1.8
2015-May-14 02:33N 35°37' E 139°47'0 0.4
2015-May-14 01:33N 35°36' E 139°46'2 1.9
2015-May-14 00:33N 35°38' E 139°45'0 0.0
2015-May-13 23:33N 35°38' E 139°45'0 0.0
2015-May-13 22:34N 35°38' E 139°45'0 0.0
2015-May-13 21:34N 35°38' E 139°45'0 0.0
2015-May-13 20:33N 35°38' E 139°45'0 0.0
2015-May-13 19:33N 35°38' E 139°45'0 0.0
2015-May-13 18:33N 35°38' E 139°45'0 0.0
2015-May-13 17:33N 35°38' E 139°45'0 0.0
2015-May-13 16:33N 35°38' E 139°45'0 0.0
2015-May-13 15:33N 35°38' E 139°45'0 0.2
2015-May-13 14:33N 35°38' E 139°46'3 3.4
2015-May-13 13:33N 35°35' E 139°48'1 1.0
2015-May-13 12:33N 35°36' E 139°48'0 0.0
2015-May-13 11:33N 35°36' E 139°48'1 0.6
2015-May-13 10:33N 35°36' E 139°47'3 2.7
2015-May-13 09:34N 35°38' E 139°45'  

Dump ship's entire track history